createdAt,value
2022-08-29T00:00:51.487Z,100.00
2022-08-29T00:03:22.119Z,100.00
2022-08-29T00:05:51.101Z,100.00
2022-08-29T00:08:21.158Z,100.00
2022-08-29T00:10:49.575Z,100.00
2022-08-29T00:13:17.997Z,100.00
2022-08-29T00:15:49.367Z,100.00
2022-08-29T00:18:19.551Z,100.00
2022-08-29T00:20:48.980Z,100.00
2022-08-29T00:23:17.961Z,100.00
2022-08-29T00:25:50.039Z,100.00
2022-08-29T00:28:20.825Z,100.00
2022-08-29T00:30:50.084Z,100.00
2022-08-29T00:33:19.976Z,100.00
2022-08-29T00:35:53.281Z,100.00
2022-08-29T00:38:21.669Z,100.00
2022-08-29T00:40:59.955Z,100.00
2022-08-29T00:43:30.747Z,100.00
2022-08-29T00:46:09.119Z,100.00
2022-08-29T00:48:39.240Z,100.00
2022-08-29T00:51:13.709Z,100.00
2022-08-29T00:53:49.247Z,100.00
2022-08-29T00:56:19.291Z,100.00
2022-08-29T00:58:52.332Z,100.00
2022-08-29T01:01:23.082Z,100.00
2022-08-29T01:03:52.499Z,100.00
2022-08-29T01:06:22.228Z,100.00
2022-08-29T01:08:57.605Z,100.00
2022-08-29T01:11:47.835Z,100.00
2022-08-29T01:14:17.480Z,100.00
2022-08-29T01:16:47.787Z,100.00
2022-08-29T01:19:26.253Z,100.00
2022-08-29T01:22:03.860Z,100.00
2022-08-29T01:24:40.500Z,100.00
2022-08-29T01:27:12.113Z,100.00
2022-08-29T01:29:41.336Z,100.00
2022-08-29T01:32:09.706Z,100.00
2022-08-29T01:34:38.107Z,100.00
2022-08-29T01:37:08.705Z,100.00
2022-08-29T01:39:43.896Z,100.00
2022-08-29T01:42:15.135Z,100.00
2022-08-29T01:44:49.736Z,100.00
2022-08-29T01:47:19.443Z,100.00
2022-08-29T01:49:48.326Z,100.00
2022-08-29T01:52:16.944Z,100.00
2022-08-29T01:54:47.317Z,100.00
2022-08-29T01:57:17.263Z,100.00
2022-08-29T01:59:46.234Z,100.00
2022-08-29T02:02:18.287Z,100.00
2022-08-29T02:04:47.325Z,100.00
2022-08-29T02:07:17.436Z,100.00
2022-08-29T02:09:48.330Z,100.00
2022-08-29T02:12:17.535Z,100.00
2022-08-29T02:14:46.358Z,100.00
2022-08-29T02:17:14.950Z,100.00
2022-08-29T02:19:44.060Z,100.00
2022-08-29T02:22:12.602Z,100.00
2022-08-29T02:24:41.295Z,100.00
2022-08-29T02:27:12.479Z,100.00
2022-08-29T02:29:41.028Z,100.00
2022-08-29T02:32:15.172Z,100.00
2022-08-29T02:34:47.647Z,100.00
2022-08-29T02:37:17.807Z,100.00
2022-08-29T02:39:46.184Z,100.00
2022-08-29T02:42:15.887Z,100.00
2022-08-29T02:44:44.202Z,100.00
2022-08-29T02:47:14.591Z,100.00
2022-08-29T02:49:43.702Z,100.00
2022-08-29T02:52:12.619Z,100.00
2022-08-29T02:54:41.515Z,100.00
2022-08-29T02:57:09.908Z,100.00
2022-08-29T02:59:39.679Z,100.00
2022-08-29T03:02:08.151Z,100.00
2022-08-29T03:04:36.516Z,100.00
2022-08-29T03:07:05.450Z,100.00
2022-08-29T03:09:33.822Z,100.00
2022-08-29T03:12:04.891Z,100.00
2022-08-29T03:14:33.261Z,100.00
2022-08-29T03:17:02.963Z,100.00
2022-08-29T03:19:31.379Z,100.00
2022-08-29T03:22:06.284Z,100.00
2022-08-29T03:24:35.612Z,100.00
2022-08-29T03:27:04.186Z,100.00
2022-08-29T03:29:32.710Z,100.00
2022-08-29T03:32:01.324Z,100.00
2022-08-29T03:34:31.058Z,100.00
2022-08-29T03:36:59.695Z,100.00
2022-08-29T03:39:29.396Z,100.00
2022-08-29T03:41:58.359Z,100.00
2022-08-29T03:44:27.156Z,100.00
2022-08-29T03:46:56.987Z,100.00
2022-08-29T03:49:25.787Z,100.00
2022-08-29T03:51:56.044Z,100.00
2022-08-29T03:54:24.858Z,100.00
2022-08-29T03:56:53.287Z,100.00
2022-08-29T03:59:21.660Z,100.00
2022-08-29T04:01:50.048Z,100.00
2022-08-29T04:04:34.572Z,100.00
2022-08-29T04:07:06.336Z,100.00
2022-08-29T04:09:34.775Z,100.00
2022-08-29T04:12:03.620Z,100.00
2022-08-29T04:14:32.401Z,100.00
2022-08-29T04:17:01.169Z,100.00
2022-08-29T04:19:29.524Z,100.00
2022-08-29T04:21:58.200Z,100.00
2022-08-29T04:24:27.899Z,100.00
2022-08-29T04:26:56.587Z,100.00
2022-08-29T04:29:25.882Z,100.00
2022-08-29T04:31:54.273Z,100.00
2022-08-29T04:34:25.331Z,100.00
2022-08-29T04:36:53.635Z,100.00
2022-08-29T04:39:23.647Z,100.00
2022-08-29T04:41:53.348Z,100.00
2022-08-29T04:44:21.732Z,100.00
2022-08-29T04:46:50.101Z,100.00
2022-08-29T04:49:18.725Z,100.00
2022-08-29T04:51:47.145Z,100.00
2022-08-29T04:54:15.838Z,100.00
2022-08-29T04:56:47.370Z,100.00
2022-08-29T04:59:17.783Z,100.00
2022-08-29T05:01:46.913Z,100.00
2022-08-29T05:04:15.259Z,100.00
2022-08-29T05:06:43.753Z,100.00
2022-08-29T05:09:12.107Z,100.00
2022-08-29T05:11:41.416Z,100.00
2022-08-29T05:14:10.075Z,100.00
2022-08-29T05:16:39.855Z,100.00
2022-08-29T05:19:09.671Z,100.00
2022-08-29T05:21:40.486Z,100.00
2022-08-29T05:24:12.820Z,100.00
2022-08-29T05:26:44.089Z,100.00
2022-08-29T05:29:14.433Z,100.00
2022-08-29T05:31:45.803Z,100.00
2022-08-29T05:34:32.325Z,100.00
2022-08-29T05:37:05.503Z,100.00
2022-08-29T05:39:34.826Z,100.00
2022-08-29T05:42:03.769Z,100.00
2022-08-29T05:44:35.305Z,100.00
2022-08-29T05:47:06.662Z,100.00
2022-08-29T05:49:37.107Z,100.00
2022-08-29T05:52:07.223Z,100.00
2022-08-29T05:54:41.208Z,100.00
2022-08-29T05:57:14.212Z,100.00
2022-08-29T05:59:45.360Z,100.00
2022-08-29T06:02:15.194Z,100.00
2022-08-29T06:04:44.095Z,100.00
2022-08-29T06:07:12.657Z,100.00
2022-08-29T06:09:42.670Z,100.00
2022-08-29T06:14:40.441Z,100.00
2022-08-29T06:17:10.472Z,100.00
2022-08-29T06:19:40.939Z,100.00
2022-08-29T06:22:10.710Z,100.00
2022-08-29T06:24:40.324Z,100.00
2022-08-29T06:27:14.106Z,100.00
2022-08-29T06:29:43.952Z,100.00
2022-08-29T06:32:12.880Z,100.00
2022-08-29T06:34:43.004Z,100.00
2022-08-29T06:37:11.376Z,100.00
2022-08-29T06:39:39.916Z,100.00
2022-08-29T06:42:09.728Z,100.00
2022-08-29T06:44:42.477Z,100.00
2022-08-29T06:47:13.101Z,100.00
2022-08-29T06:49:42.898Z,100.00
2022-08-29T06:52:11.287Z,100.00
2022-08-29T06:54:39.818Z,100.00
2022-08-29T06:57:08.356Z,100.00
2022-08-29T06:59:36.748Z,100.00
2022-08-29T07:02:05.558Z,100.00
2022-08-29T07:04:33.919Z,100.00
2022-08-29T07:07:07.334Z,100.00
2022-08-29T07:09:35.683Z,100.00
2022-08-29T07:12:05.956Z,100.00
2022-08-29T07:14:34.302Z,100.00
2022-08-29T07:17:02.664Z,100.00
2022-08-29T07:19:30.991Z,100.00
2022-08-29T07:22:00.227Z,100.00
2022-08-29T07:24:30.004Z,100.00
2022-08-29T07:26:58.413Z,100.00
2022-08-29T07:29:26.765Z,100.00
2022-08-29T07:31:55.144Z,100.00
2022-08-29T07:34:23.469Z,100.00
2022-08-29T07:36:51.809Z,100.00
2022-08-29T07:39:24.008Z,100.00
2022-08-29T07:41:53.682Z,100.00
2022-08-29T07:44:22.018Z,100.00
2022-08-29T07:46:50.335Z,100.00
2022-08-29T07:49:18.759Z,100.00
2022-08-29T07:51:47.889Z,100.00
2022-08-29T07:54:18.730Z,100.00
2022-08-29T07:56:48.728Z,100.00
2022-08-29T07:59:20.059Z,100.00
2022-08-29T08:01:51.558Z,100.00
2022-08-29T08:04:20.488Z,100.00
2022-08-29T08:06:52.626Z,100.00
2022-08-29T08:09:21.004Z,100.00
2022-08-29T08:11:49.470Z,100.00
2022-08-29T08:14:19.276Z,100.00
2022-08-29T08:16:47.762Z,100.00
2022-08-29T08:19:17.003Z,100.00
2022-08-29T08:21:49.592Z,100.00
2022-08-29T08:24:19.787Z,100.00
2022-08-29T08:26:48.947Z,100.00
2022-08-29T08:29:19.361Z,100.00
2022-08-29T08:31:49.849Z,100.00
2022-08-29T08:34:19.263Z,100.00
2022-08-29T08:36:47.693Z,100.00
2022-08-29T08:39:16.532Z,100.00
2022-08-29T08:41:57.155Z,100.00
2022-08-29T08:44:54.112Z,100.00
2022-08-29T08:47:28.508Z,100.00
2022-08-29T08:50:01.398Z,100.00
2022-08-29T08:52:38.761Z,100.00
2022-08-29T08:55:19.587Z,100.00
2022-08-29T08:57:53.820Z,100.00
2022-08-29T09:00:23.625Z,100.00
2022-08-29T09:03:05.082Z,100.00
2022-08-29T09:05:49.425Z,100.00
2022-08-29T09:08:29.828Z,100.00
2022-08-29T09:11:03.110Z,100.00
2022-08-29T09:13:40.653Z,100.00
2022-08-29T09:16:18.858Z,100.00
2022-08-29T09:18:52.842Z,100.00
2022-08-29T09:21:40.598Z,100.00
2022-08-29T09:24:18.960Z,100.00
2022-08-29T09:26:47.469Z,100.00
2022-08-29T09:29:20.984Z,100.00
2022-08-29T09:32:08.387Z,100.00
2022-08-29T09:37:30.240Z,100.00
2022-08-29T09:40:02.974Z,100.00
2022-08-29T09:42:35.379Z,100.00
2022-08-29T09:45:05.360Z,100.00
2022-08-29T09:47:35.625Z,100.00
2022-08-29T09:50:12.070Z,100.00
2022-08-29T09:52:51.085Z,100.00
2022-08-29T09:55:28.477Z,100.00
2022-08-29T09:58:01.666Z,100.00
2022-08-29T10:00:34.487Z,100.00
2022-08-29T10:03:06.324Z,100.00
2022-08-29T10:05:41.700Z,100.00
2022-08-29T10:08:26.568Z,100.00
2022-08-29T10:11:03.773Z,100.00
2022-08-29T10:13:38.991Z,100.00
2022-08-29T10:16:17.866Z,100.00
2022-08-29T10:18:51.922Z,100.00
2022-08-29T10:21:32.213Z,100.00
2022-08-29T10:24:36.096Z,100.00
2022-08-29T10:27:15.760Z,100.00
2022-08-29T10:29:56.293Z,100.00
2022-08-29T10:32:37.161Z,100.00
2022-08-29T10:35:15.978Z,100.00
2022-08-29T10:37:53.640Z,100.00
2022-08-29T10:40:28.323Z,100.00
2022-08-29T10:43:16.834Z,100.00
2022-08-29T10:45:57.639Z,100.00
2022-08-29T10:48:30.956Z,100.00
2022-08-29T10:51:17.977Z,100.00
2022-08-29T10:53:48.650Z,100.00
2022-08-29T10:56:23.103Z,100.00
2022-08-29T10:59:04.170Z,100.00
2022-08-29T11:01:38.322Z,100.00
2022-08-29T11:04:17.563Z,100.00
2022-08-29T11:06:54.304Z,100.00
2022-08-29T11:09:25.405Z,100.00
2022-08-29T11:12:00.522Z,100.00
2022-08-29T11:14:31.078Z,100.00
2022-08-29T11:16:59.679Z,100.00
2022-08-29T11:19:33.764Z,100.00
2022-08-29T11:22:05.997Z,100.00
2022-08-29T11:24:37.373Z,100.00
2022-08-29T11:27:09.109Z,100.00
2022-08-29T11:29:40.412Z,100.00
2022-08-29T11:32:10.705Z,100.00
2022-08-29T11:34:46.924Z,99.76
2022-08-29T11:37:26.967Z,100.00
2022-08-29T11:39:58.588Z,100.00
2022-08-29T11:45:24.811Z,98.57
2022-08-29T11:47:59.354Z,97.51
2022-08-29T11:50:32.570Z,98.38
2022-08-29T11:53:07.999Z,98.68
2022-08-29T11:55:38.378Z,94.55
2022-08-29T11:58:11.314Z,91.85
2022-08-29T12:00:42.512Z,94.73
2022-08-29T12:03:29.809Z,94.11
2022-08-29T12:06:00.473Z,91.35
2022-08-29T12:08:37.219Z,92.47
2022-08-29T12:11:06.823Z,89.23
2022-08-29T12:14:07.911Z,87.92
2022-08-29T12:16:53.730Z,86.72
2022-08-29T12:19:40.756Z,88.37
2022-08-29T12:22:22.455Z,88.85
2022-08-29T12:24:57.880Z,86.95
2022-08-29T12:27:47.332Z,85.17
2022-08-29T12:30:15.444Z,80.27
2022-08-29T12:32:52.910Z,79.09
2022-08-29T12:35:28.045Z,77.84
2022-08-29T12:38:03.402Z,77.08
2022-08-29T12:40:41.935Z,77.98
2022-08-29T12:43:18.820Z,77.43
2022-08-29T12:45:48.099Z,79.43
2022-08-29T12:48:20.632Z,74.01
2022-08-29T12:50:50.628Z,77.50
2022-08-29T12:53:20.113Z,73.52
2022-08-29T12:55:51.197Z,76.82
2022-08-29T12:58:35.936Z,77.01
2022-08-29T13:01:05.094Z,77.68
2022-08-29T13:03:33.313Z,78.22
2022-08-29T13:06:05.909Z,80.62
2022-08-29T13:08:37.091Z,73.38
2022-08-29T13:11:07.735Z,73.38
2022-08-29T13:13:36.705Z,71.34
2022-08-29T13:16:05.748Z,71.11
2022-08-29T13:18:53.686Z,71.97
2022-08-29T13:21:25.545Z,70.79
2022-08-29T13:24:01.733Z,71.16
2022-08-29T13:26:34.097Z,71.00
2022-08-29T13:29:14.421Z,69.56
2022-08-29T13:31:42.556Z,67.45
2022-08-29T13:34:15.662Z,68.17
2022-08-29T13:36:46.332Z,67.38
2022-08-29T13:39:32.434Z,67.67
2022-08-29T13:42:19.074Z,68.94
2022-08-29T13:44:53.913Z,68.32
2022-08-29T13:47:23.578Z,67.27
2022-08-29T13:49:52.063Z,69.22
2022-08-29T13:52:20.627Z,66.84
2022-08-29T13:54:48.714Z,77.14
2022-08-29T13:57:20.626Z,72.02
2022-08-29T13:59:48.855Z,69.55
2022-08-29T14:02:17.126Z,68.59
2022-08-29T14:04:48.083Z,66.63
2022-08-29T14:07:19.023Z,66.36
2022-08-29T14:09:47.722Z,65.20
2022-08-29T14:12:16.246Z,64.50
2022-08-29T14:14:46.737Z,65.74
2022-08-29T14:17:18.702Z,62.70
2022-08-29T14:19:47.099Z,64.54
2022-08-29T14:22:15.194Z,64.20
2022-08-29T14:24:51.266Z,62.69
2022-08-29T14:27:19.937Z,61.81
2022-08-29T14:29:51.114Z,62.22
2022-08-29T14:32:19.239Z,61.64
2022-08-29T14:34:50.948Z,62.37
2022-08-29T14:37:19.881Z,61.47
2022-08-29T14:39:49.966Z,63.65
2022-08-29T14:42:18.847Z,62.79
2022-08-29T14:44:46.913Z,61.77
2022-08-29T14:47:16.710Z,62.56
2022-08-29T14:49:44.753Z,61.43
2022-08-29T14:52:14.924Z,68.10
2022-08-29T14:54:43.546Z,61.64
2022-08-29T14:57:12.362Z,61.02
2022-08-29T14:59:40.630Z,60.33
2022-08-29T15:02:09.830Z,58.64
2022-08-29T15:04:39.403Z,60.03
2022-08-29T15:07:08.146Z,61.61
2022-08-29T15:09:36.211Z,59.66
2022-08-29T15:12:04.662Z,59.94
2022-08-29T15:14:34.273Z,60.82
2022-08-29T15:17:02.293Z,62.42
2022-08-29T15:20:31.879Z,63.63
2022-08-29T15:22:20.566Z,62.00
2022-08-29T15:24:50.045Z,64.40
2022-08-29T15:27:18.138Z,64.21
2022-08-29T15:29:46.279Z,60.74
2022-08-29T15:32:14.854Z,60.80
2022-08-29T15:34:43.554Z,60.78
2022-08-29T15:37:15.322Z,61.12
2022-08-29T15:39:45.054Z,61.59
2022-08-29T15:42:13.261Z,63.39
2022-08-29T15:44:47.788Z,61.63
2022-08-29T15:47:19.488Z,62.44
2022-08-29T15:49:53.753Z,63.53
2022-08-29T15:52:21.815Z,61.41
2022-08-29T15:54:51.304Z,61.71
2022-08-29T15:57:19.416Z,63.24
2022-08-29T15:59:58.578Z,63.42
2022-08-29T16:02:27.187Z,62.59
2022-08-29T16:04:57.150Z,62.53
2022-08-29T16:07:28.884Z,62.38
2022-08-29T16:10:00.170Z,61.28
2022-08-29T16:12:30.953Z,61.46
2022-08-29T16:15:00.816Z,62.65
2022-08-29T16:17:31.465Z,62.16
2022-08-29T16:20:00.876Z,62.68
2022-08-29T16:22:29.934Z,61.52
2022-08-29T16:24:59.803Z,62.05
2022-08-29T16:27:28.155Z,63.93
2022-08-29T16:29:57.258Z,63.93
2022-08-29T16:32:27.845Z,63.17
2022-08-29T16:34:58.531Z,62.39
2022-08-29T16:37:29.486Z,62.96
2022-08-29T16:39:59.730Z,63.50
2022-08-29T16:42:30.551Z,63.34
2022-08-29T16:44:59.621Z,63.60
2022-08-29T16:47:28.408Z,64.03
2022-08-29T16:49:56.555Z,64.38
2022-08-29T16:52:24.607Z,63.94
2022-08-29T16:54:53.717Z,63.29
2022-08-29T16:57:23.417Z,64.92
2022-08-29T16:59:51.536Z,64.00
2022-08-29T17:02:19.657Z,63.84
2022-08-29T17:04:48.863Z,64.69
2022-08-29T17:07:17.307Z,66.31
2022-08-29T17:09:44.256Z,66.71
2022-08-29T17:12:11.404Z,66.84
2022-08-29T17:14:40.368Z,65.78
2022-08-29T17:17:08.575Z,66.42
2022-08-29T17:19:37.466Z,67.06
2022-08-29T17:22:05.537Z,66.10
2022-08-29T17:24:33.628Z,67.56
2022-08-29T17:27:01.897Z,66.87
2022-08-29T17:29:32.620Z,67.52
2022-08-29T17:32:02.402Z,68.18
2022-08-29T17:34:31.196Z,68.13
2022-08-29T17:37:01.421Z,69.50
2022-08-29T17:39:29.518Z,70.03
2022-08-29T17:41:59.185Z,69.60
2022-08-29T17:44:27.654Z,70.39
2022-08-29T17:46:55.821Z,70.58
2022-08-29T17:49:25.671Z,71.67
2022-08-29T17:51:56.195Z,72.90
2022-08-29T17:54:25.540Z,73.64
2022-08-29T17:56:55.802Z,74.31
2022-08-29T17:59:27.162Z,75.55
2022-08-29T18:01:55.794Z,76.87
2022-08-29T18:04:28.560Z,78.16
2022-08-29T18:06:57.483Z,82.95
2022-08-29T18:09:26.105Z,87.56
2022-08-29T18:11:54.830Z,90.33
2022-08-29T18:14:23.810Z,92.07
2022-08-29T18:16:52.412Z,91.87
2022-08-29T18:19:21.991Z,90.50
2022-08-29T18:21:52.660Z,92.10
2022-08-29T18:24:20.987Z,93.87
2022-08-29T18:26:49.549Z,94.26
2022-08-29T18:29:18.432Z,94.27
2022-08-29T18:31:47.083Z,94.02
2022-08-29T18:34:15.782Z,95.95
2022-08-29T18:36:44.818Z,97.82
2022-08-29T18:39:14.862Z,96.92
2022-08-29T18:41:43.481Z,100.00
2022-08-29T18:44:11.920Z,100.00
2022-08-29T18:46:41.411Z,99.86
2022-08-29T18:49:16.002Z,100.00
2022-08-29T18:51:44.643Z,100.00
2022-08-29T18:54:18.813Z,100.00
2022-08-29T18:56:47.915Z,100.00
2022-08-29T18:59:16.626Z,100.00
2022-08-29T19:01:44.785Z,100.00
2022-08-29T19:04:13.000Z,100.00
2022-08-29T19:06:41.176Z,100.00
2022-08-29T19:09:09.426Z,100.00
2022-08-29T19:11:39.000Z,100.00
2022-08-29T19:14:07.146Z,100.00
2022-08-29T19:16:36.940Z,100.00
2022-08-29T19:19:05.317Z,100.00
2022-08-29T19:21:40.040Z,100.00
2022-08-29T19:24:08.297Z,100.00
2022-08-29T19:26:38.494Z,100.00
2022-08-29T19:29:12.560Z,100.00
2022-08-29T19:31:40.891Z,100.00
2022-08-29T19:34:09.066Z,100.00
2022-08-29T19:36:39.112Z,100.00
2022-08-29T19:39:07.145Z,100.00
2022-08-29T19:41:35.923Z,100.00
2022-08-29T19:44:04.254Z,100.00
2022-08-29T19:46:33.724Z,100.00
2022-08-29T19:51:36.215Z,100.00
2022-08-29T19:54:05.920Z,100.00
2022-08-29T19:56:34.274Z,100.00
2022-08-29T19:59:02.748Z,100.00
2022-08-29T20:01:30.888Z,100.00
2022-08-29T20:04:00.373Z,100.00
2022-08-29T20:06:30.565Z,100.00
2022-08-29T20:08:58.716Z,100.00
2022-08-29T20:11:27.817Z,100.00
2022-08-29T20:13:57.577Z,100.00
2022-08-29T20:16:27.280Z,100.00
2022-08-29T20:18:55.412Z,100.00
2022-08-29T20:21:25.599Z,100.00
2022-08-29T20:23:57.746Z,100.00
2022-08-29T20:26:27.914Z,100.00
2022-08-29T20:28:56.201Z,100.00
2022-08-29T20:31:24.349Z,100.00
2022-08-29T20:33:52.487Z,100.00
2022-08-29T20:36:38.987Z,100.00
2022-08-29T20:39:10.544Z,100.00
2022-08-29T20:41:38.622Z,100.00
2022-08-29T20:44:09.759Z,100.00
2022-08-29T20:46:40.279Z,100.00
2022-08-29T20:49:08.816Z,100.00
2022-08-29T20:51:39.577Z,100.00
2022-08-29T20:54:08.959Z,100.00
2022-08-29T20:56:37.067Z,100.00
2022-08-29T20:59:05.406Z,100.00
2022-08-29T21:01:34.573Z,100.00
2022-08-29T21:04:21.438Z,100.00
2022-08-29T21:06:49.638Z,100.00
2022-08-29T21:09:18.976Z,100.00
2022-08-29T21:11:47.028Z,100.00
2022-08-29T21:14:15.098Z,100.00
2022-08-29T21:16:43.136Z,100.00
2022-08-29T21:19:12.677Z,100.00
2022-08-29T21:21:41.464Z,100.00
2022-08-29T21:24:10.996Z,100.00
2022-08-29T21:26:40.781Z,100.00
2022-08-29T21:29:08.862Z,100.00
2022-08-29T21:31:37.377Z,100.00
2022-08-29T21:34:07.259Z,100.00
2022-08-29T21:36:36.092Z,100.00
2022-08-29T21:39:05.306Z,100.00
2022-08-29T21:41:33.855Z,100.00
2022-08-29T21:44:03.912Z,100.00
2022-08-29T21:46:33.264Z,100.00
2022-08-29T21:49:06.739Z,100.00
2022-08-29T21:51:35.502Z,100.00
2022-08-29T21:54:04.110Z,100.00
2022-08-29T21:56:32.966Z,100.00
2022-08-29T21:59:01.999Z,100.00
2022-08-29T22:02:37.366Z,100.00
2022-08-29T22:05:05.879Z,100.00
2022-08-29T22:07:34.302Z,100.00
2022-08-29T22:10:02.363Z,100.00
2022-08-29T22:12:31.251Z,100.00
2022-08-29T22:15:16.022Z,100.00
2022-08-29T22:17:47.732Z,100.00
2022-08-29T22:20:15.869Z,100.00
2022-08-29T22:22:43.951Z,100.00
2022-08-29T22:25:12.125Z,100.00
2022-08-29T22:27:40.554Z,100.00
2022-08-29T22:30:09.493Z,100.00
2022-08-29T22:32:37.713Z,100.00
2022-08-29T22:35:11.057Z,100.00
2022-08-29T22:37:39.433Z,100.00
2022-08-29T22:40:09.532Z,100.00
2022-08-29T22:42:38.189Z,100.00
2022-08-29T22:45:08.558Z,100.00
2022-08-29T22:47:36.935Z,100.00
2022-08-29T22:50:05.804Z,100.00
2022-08-29T22:52:35.208Z,100.00
2022-08-29T22:55:05.222Z,100.00
2022-08-29T22:57:33.734Z,100.00
2022-08-29T23:00:03.931Z,100.00
2022-08-29T23:02:32.727Z,100.00
2022-08-29T23:05:00.826Z,100.00
2022-08-29T23:07:28.874Z,100.00
2022-08-29T23:09:58.518Z,100.00
2022-08-29T23:12:26.620Z,100.00
2022-08-29T23:14:54.614Z,100.00
2022-08-29T23:17:24.942Z,100.00
2022-08-29T23:19:53.004Z,100.00
2022-08-29T23:22:21.888Z,100.00
2022-08-29T23:24:58.443Z,100.00
2022-08-29T23:27:29.034Z,100.00
2022-08-29T23:29:57.145Z,100.00
2022-08-29T23:32:27.345Z,100.00
2022-08-29T23:34:55.603Z,100.00
2022-08-29T23:37:23.909Z,100.00
2022-08-29T23:39:52.015Z,100.00
2022-08-29T23:42:20.096Z,100.00
2022-08-29T23:44:49.554Z,100.00
2022-08-29T23:47:18.047Z,100.00
2022-08-29T23:49:46.253Z,100.00
2022-08-29T23:52:14.639Z,100.00
2022-08-29T23:54:42.980Z,100.00
2022-08-29T23:57:11.052Z,100.00
2022-08-29T23:59:56.809Z,100.00
